createdAt,value
2019-01-23T00:01:21.153Z,91.80
2019-01-23T00:03:48.582Z,91.80
2019-01-23T00:06:16.038Z,91.80
2019-01-23T00:08:43.815Z,91.80
2019-01-23T00:11:12.064Z,91.80
2019-01-23T00:13:39.590Z,91.80
2019-01-23T00:16:08.095Z,91.80
2019-01-23T00:18:35.869Z,91.80
2019-01-23T00:21:03.650Z,91.80
2019-01-23T00:23:31.201Z,91.80
2019-01-23T00:25:58.750Z,91.80
2019-01-23T00:28:26.302Z,91.80
2019-01-23T00:30:53.830Z,91.80
2019-01-23T00:33:21.388Z,91.80
2019-01-23T00:35:49.020Z,91.80
2019-01-23T00:38:16.709Z,91.80
2019-01-23T00:40:44.201Z,91.80
2019-01-23T00:43:11.677Z,91.90
2019-01-23T00:45:39.276Z,91.90
2019-01-23T00:48:07.068Z,91.90
2019-01-23T00:50:34.961Z,91.90
2019-01-23T00:53:02.705Z,91.90
2019-01-23T00:55:30.354Z,92.00
2019-01-23T00:57:57.956Z,92.00
2019-01-23T01:00:25.795Z,92.00
2019-01-23T01:02:54.181Z,92.00
2019-01-23T01:05:22.171Z,92.00
2019-01-23T01:07:49.579Z,92.10
2019-01-23T01:10:17.580Z,92.10
2019-01-23T01:12:45.252Z,92.10
2019-01-23T01:15:13.746Z,92.10
2019-01-23T01:17:41.179Z,92.10
2019-01-23T01:20:09.550Z,92.10
2019-01-23T01:22:37.288Z,92.10
2019-01-23T01:25:06.886Z,92.10
2019-01-23T01:27:34.382Z,92.20
2019-01-23T01:30:01.872Z,92.20
2019-01-23T01:32:29.440Z,92.10
2019-01-23T01:34:57.067Z,92.40
2019-01-23T01:37:24.558Z,92.20
2019-01-23T01:39:52.116Z,92.20
2019-01-23T01:42:19.413Z,92.20
2019-01-23T01:44:46.870Z,92.10
2019-01-23T01:47:14.461Z,92.20
2019-01-23T01:49:41.820Z,92.20
2019-01-23T01:52:09.258Z,92.20
2019-01-23T01:54:36.809Z,92.20
2019-01-23T01:57:04.408Z,92.20
2019-01-23T01:59:31.964Z,92.20
2019-01-23T02:01:59.377Z,92.20
2019-01-23T02:04:26.933Z,92.20
2019-01-23T02:06:54.443Z,92.20
2019-01-23T02:09:22.046Z,92.30
2019-01-23T02:11:49.538Z,92.30
2019-01-23T02:14:17.002Z,92.30
2019-01-23T02:16:44.283Z,92.30
2019-01-23T02:19:11.892Z,92.30
2019-01-23T02:21:39.427Z,92.30
2019-01-23T02:24:06.866Z,92.30
2019-01-23T02:26:34.406Z,92.30
2019-01-23T02:29:01.887Z,92.30
2019-01-23T02:31:29.478Z,92.30
2019-01-23T02:33:56.902Z,92.30
2019-01-23T02:36:24.203Z,92.40
2019-01-23T02:38:51.635Z,92.40
2019-01-23T02:41:19.052Z,92.40
2019-01-23T02:43:46.462Z,92.40
2019-01-23T02:46:13.983Z,92.30
2019-01-23T02:48:41.543Z,92.30
2019-01-23T02:51:09.121Z,92.30
2019-01-23T02:53:36.602Z,92.60
2019-01-23T02:56:04.109Z,92.40
2019-01-23T02:58:31.547Z,92.50
2019-01-23T03:00:58.975Z,92.40
2019-01-23T03:03:26.382Z,92.50
2019-01-23T03:05:54.514Z,92.50
2019-01-23T03:08:22.299Z,92.50
2019-01-23T03:10:49.614Z,92.40
2019-01-23T03:13:17.104Z,92.40
2019-01-23T03:15:44.750Z,92.50
2019-01-23T03:18:12.272Z,92.50
2019-01-23T03:20:39.633Z,92.50
2019-01-23T03:23:07.083Z,92.40
2019-01-23T03:25:34.399Z,92.40
2019-01-23T03:28:01.899Z,92.40
2019-01-23T03:30:29.316Z,92.40
2019-01-23T03:32:56.908Z,92.40
2019-01-23T03:35:24.438Z,92.40
2019-01-23T03:37:52.089Z,92.40
2019-01-23T03:40:20.825Z,92.40
2019-01-23T03:42:48.307Z,92.40
2019-01-23T03:45:16.617Z,92.40
2019-01-23T03:47:44.261Z,92.40
2019-01-23T03:50:13.358Z,92.40
2019-01-23T03:52:40.885Z,92.40
2019-01-23T03:55:09.715Z,92.40
2019-01-23T03:57:37.257Z,92.40
2019-01-23T04:00:06.469Z,92.40
2019-01-23T04:02:34.035Z,92.40
2019-01-23T04:05:01.647Z,92.40
2019-01-23T04:07:29.259Z,92.40
2019-01-23T04:09:56.873Z,92.40
2019-01-23T04:12:24.256Z,92.40
2019-01-23T04:14:51.631Z,92.50
2019-01-23T04:17:19.243Z,92.50
2019-01-23T04:19:49.381Z,92.50
2019-01-23T04:22:17.029Z,92.50
2019-01-23T04:24:44.580Z,92.80
2019-01-23T04:27:12.114Z,92.50
2019-01-23T04:29:40.029Z,92.40
2019-01-23T04:32:07.658Z,92.40
2019-01-23T04:34:35.239Z,92.50
2019-01-23T04:37:02.759Z,92.50
2019-01-23T04:39:30.262Z,92.50
2019-01-23T04:41:57.647Z,92.50
2019-01-23T04:44:25.030Z,92.50
2019-01-23T04:46:52.556Z,92.50
2019-01-23T04:49:19.952Z,92.50
2019-01-23T04:52:12.462Z,92.50
2019-01-23T04:54:39.891Z,92.50
2019-01-23T04:57:07.730Z,92.50
2019-01-23T04:59:35.223Z,92.50
2019-01-23T05:02:02.768Z,92.50
2019-01-23T05:04:30.306Z,92.60
2019-01-23T05:07:00.442Z,92.50
2019-01-23T05:09:27.967Z,92.60
2019-01-23T05:11:56.018Z,92.60
2019-01-23T05:14:23.576Z,92.60
2019-01-23T05:16:51.289Z,92.60
2019-01-23T05:19:18.757Z,92.60
2019-01-23T05:21:46.128Z,92.60
2019-01-23T05:24:13.614Z,92.60
2019-01-23T05:26:42.506Z,92.70
2019-01-23T05:29:15.385Z,92.70
2019-01-23T05:31:42.833Z,92.60
2019-01-23T05:34:10.243Z,92.80
2019-01-23T05:36:48.149Z,92.60
2019-01-23T05:39:15.620Z,92.70
2019-01-23T05:41:43.263Z,92.70
2019-01-23T05:44:11.066Z,92.70
2019-01-23T05:46:38.744Z,92.70
2019-01-23T05:49:06.282Z,92.70
2019-01-23T05:51:33.803Z,92.70
2019-01-23T05:54:01.309Z,92.70
2019-01-23T05:56:29.015Z,92.70
2019-01-23T05:58:56.594Z,92.70
2019-01-23T06:01:24.512Z,92.80
2019-01-23T06:03:52.128Z,92.70
2019-01-23T06:06:19.792Z,92.80
2019-01-23T06:08:47.449Z,92.80
2019-01-23T06:11:14.965Z,92.80
2019-01-23T06:13:42.505Z,92.90
2019-01-23T06:16:09.962Z,92.80
2019-01-23T06:18:37.773Z,92.80
2019-01-23T06:21:08.651Z,92.80
2019-01-23T06:23:36.147Z,92.80
2019-01-23T06:26:03.990Z,92.80
2019-01-23T06:28:31.567Z,92.90
2019-01-23T06:30:59.247Z,92.80
2019-01-23T06:33:28.649Z,92.90
2019-01-23T06:36:15.654Z,92.90
2019-01-23T06:38:43.134Z,92.90
2019-01-23T06:41:10.781Z,93.00
2019-01-23T06:43:38.311Z,93.00
2019-01-23T06:46:08.818Z,93.00
2019-01-23T06:48:36.372Z,93.00
2019-01-23T06:51:03.837Z,93.00
2019-01-23T06:53:31.310Z,93.00
2019-01-23T06:55:58.914Z,93.00
2019-01-23T06:58:32.750Z,93.00
2019-01-23T07:01:00.322Z,93.00
2019-01-23T07:03:27.742Z,93.00
2019-01-23T07:05:55.893Z,93.00
2019-01-23T07:08:23.303Z,93.00
2019-01-23T07:10:50.786Z,93.00
2019-01-23T07:13:18.549Z,93.00
2019-01-23T07:15:46.167Z,93.00
2019-01-23T07:18:13.950Z,92.90
2019-01-23T07:20:41.619Z,92.90
2019-01-23T07:23:09.110Z,92.90
2019-01-23T07:25:36.761Z,92.90
2019-01-23T07:28:04.323Z,93.00
2019-01-23T07:30:34.640Z,92.90
2019-01-23T07:33:02.225Z,93.00
2019-01-23T07:35:29.988Z,92.90
2019-01-23T07:38:00.289Z,93.00
2019-01-23T07:40:28.052Z,93.10
2019-01-23T07:42:55.619Z,93.00
2019-01-23T07:45:23.282Z,93.00
2019-01-23T07:47:50.709Z,93.00
2019-01-23T07:50:18.344Z,93.00
2019-01-23T07:52:46.190Z,93.00
2019-01-23T07:55:14.995Z,92.90
2019-01-23T07:57:42.492Z,93.00
2019-01-23T08:00:15.573Z,93.00
2019-01-23T08:02:43.065Z,93.00
2019-01-23T08:05:11.116Z,93.00
2019-01-23T08:07:39.000Z,93.00
2019-01-23T08:10:09.008Z,93.00
2019-01-23T08:12:36.474Z,93.00
2019-01-23T08:15:07.275Z,93.00
2019-01-23T08:17:35.003Z,93.00
2019-01-23T08:20:03.670Z,93.00
2019-01-23T08:22:31.684Z,93.00
2019-01-23T08:24:59.402Z,92.90
2019-01-23T08:27:26.798Z,92.90
2019-01-23T08:29:54.246Z,92.90
2019-01-23T08:32:21.747Z,92.90
2019-01-23T08:34:49.255Z,92.80
2019-01-23T08:37:16.655Z,92.80
2019-01-23T08:39:44.182Z,92.90
2019-01-23T08:42:11.673Z,92.90
2019-01-23T08:44:39.040Z,92.90
2019-01-23T08:47:06.433Z,92.90
2019-01-23T08:49:34.002Z,92.80
2019-01-23T08:52:01.571Z,92.80
2019-01-23T08:54:29.069Z,92.90
2019-01-23T08:56:56.668Z,92.90
2019-01-23T08:59:24.238Z,92.90
2019-01-23T09:01:51.807Z,92.90
2019-01-23T09:04:19.437Z,92.80
2019-01-23T09:06:46.839Z,92.80
2019-01-23T09:09:14.571Z,92.90
2019-01-23T09:11:41.990Z,92.80
2019-01-23T09:14:09.407Z,92.80
2019-01-23T09:16:36.892Z,92.70
2019-01-23T09:19:04.495Z,92.80
2019-01-23T09:21:32.100Z,92.80
2019-01-23T09:23:59.778Z,92.80
2019-01-23T09:26:27.209Z,92.70
2019-01-23T09:28:54.534Z,92.70
2019-01-23T09:31:48.729Z,92.70
2019-01-23T09:34:44.017Z,92.70
2019-01-23T09:37:37.758Z,92.60
2019-01-23T09:40:36.707Z,92.60
2019-01-23T09:43:58.049Z,92.60
2019-01-23T09:46:57.105Z,92.50
2019-01-23T09:50:05.199Z,92.80
2019-01-23T09:52:55.458Z,92.50
2019-01-23T09:55:24.208Z,92.50
2019-01-23T09:57:54.857Z,92.50
2019-01-23T10:00:25.097Z,92.50
2019-01-23T10:02:52.551Z,92.50
2019-01-23T10:05:20.102Z,92.50
2019-01-23T10:07:47.594Z,92.50
2019-01-23T10:10:16.475Z,92.50
2019-01-23T10:12:44.149Z,92.50
2019-01-23T10:15:17.884Z,92.50
2019-01-23T10:17:45.410Z,92.50
2019-01-23T10:20:12.903Z,92.50
2019-01-23T10:22:40.350Z,92.50
2019-01-23T10:25:07.688Z,92.50
2019-01-23T10:27:35.192Z,92.50
2019-01-23T10:30:03.615Z,92.50
2019-01-23T10:32:31.398Z,92.40
2019-01-23T10:34:58.942Z,92.40
2019-01-23T10:37:26.576Z,92.40
2019-01-23T10:39:54.107Z,92.40
2019-01-23T10:42:22.578Z,92.50
2019-01-23T10:44:50.145Z,92.50
2019-01-23T10:47:18.955Z,92.50
2019-01-23T10:49:46.369Z,92.50
2019-01-23T10:52:13.857Z,92.50
2019-01-23T10:54:41.292Z,92.60
2019-01-23T10:57:09.017Z,92.50
2019-01-23T10:59:36.664Z,92.50
2019-01-23T11:02:04.254Z,92.50
2019-01-23T11:04:32.014Z,92.40
2019-01-23T11:06:59.709Z,92.40
2019-01-23T11:09:27.373Z,92.40
2019-01-23T11:11:55.019Z,92.30
2019-01-23T11:14:23.618Z,92.20
2019-01-23T11:16:51.382Z,92.20
2019-01-23T11:19:18.912Z,92.30
2019-01-23T11:21:46.373Z,92.30
2019-01-23T11:24:14.122Z,92.30
2019-01-23T11:26:41.699Z,92.20
2019-01-23T11:29:09.214Z,92.20
2019-01-23T11:31:39.095Z,92.20
2019-01-23T11:34:06.637Z,92.10
2019-01-23T11:36:34.228Z,91.90
2019-01-23T11:39:01.891Z,91.90
2019-01-23T11:41:31.456Z,91.90
2019-01-23T11:43:59.210Z,91.90
2019-01-23T11:46:26.993Z,91.80
2019-01-23T11:48:54.479Z,91.70
2019-01-23T11:51:22.586Z,91.80
2019-01-23T11:53:50.236Z,91.80
2019-01-23T11:56:17.849Z,91.80
2019-01-23T11:58:45.525Z,91.80
2019-01-23T12:01:13.182Z,91.80
2019-01-23T12:03:40.934Z,91.80
2019-01-23T12:06:08.411Z,91.80
2019-01-23T12:08:35.983Z,91.80
2019-01-23T12:11:03.727Z,91.80
2019-01-23T12:13:31.217Z,91.90
2019-01-23T12:15:59.526Z,91.80
2019-01-23T12:18:27.210Z,91.80
2019-01-23T12:20:55.004Z,91.80
2019-01-23T12:23:22.601Z,91.60
2019-01-23T12:25:50.150Z,91.50
2019-01-23T12:28:17.632Z,91.60
2019-01-23T12:30:45.214Z,91.70
2019-01-23T12:33:12.958Z,91.70
2019-01-23T12:35:40.592Z,91.60
2019-01-23T12:38:08.094Z,91.60
2019-01-23T12:40:35.975Z,91.50
2019-01-23T12:43:03.926Z,91.40
2019-01-23T12:45:31.390Z,91.40
2019-01-23T12:48:18.557Z,91.40
2019-01-23T12:50:46.250Z,91.50
2019-01-23T12:53:14.195Z,91.50
2019-01-23T12:55:41.705Z,91.50
2019-01-23T12:58:09.715Z,91.20
2019-01-23T13:00:37.370Z,91.20
2019-01-23T13:03:04.860Z,91.10
2019-01-23T13:05:32.362Z,91.20
2019-01-23T13:08:00.150Z,91.30
2019-01-23T13:10:27.744Z,91.20
2019-01-23T13:12:55.429Z,91.20
2019-01-23T13:15:45.614Z,91.10
2019-01-23T13:18:13.519Z,91.00
2019-01-23T13:20:42.444Z,91.10
2019-01-23T13:23:09.916Z,91.10
2019-01-23T13:25:37.642Z,91.20
2019-01-23T13:28:05.563Z,91.00
2019-01-23T13:30:33.134Z,91.10
2019-01-23T13:33:00.566Z,91.10
2019-01-23T13:35:33.702Z,91.30
2019-01-23T13:38:01.541Z,91.30
2019-01-23T13:40:31.535Z,91.40
2019-01-23T13:42:59.200Z,91.40
2019-01-23T13:45:27.036Z,91.40
2019-01-23T13:47:54.823Z,91.30
2019-01-23T13:50:22.350Z,91.30
2019-01-23T13:52:49.947Z,91.30
2019-01-23T13:55:18.771Z,91.20
2019-01-23T13:57:46.771Z,91.40
2019-01-23T14:00:30.737Z,91.20
2019-01-23T14:02:59.288Z,91.20
2019-01-23T14:05:28.407Z,91.20
2019-01-23T14:08:00.993Z,91.30
2019-01-23T14:10:28.746Z,91.30
2019-01-23T14:12:56.631Z,91.30
2019-01-23T14:15:30.143Z,91.40
2019-01-23T14:17:58.312Z,91.30
2019-01-23T14:20:26.381Z,91.40
2019-01-23T14:22:54.344Z,91.30
2019-01-23T14:25:21.991Z,91.30
2019-01-23T14:27:49.519Z,91.30
2019-01-23T14:30:23.668Z,91.30
2019-01-23T14:32:51.198Z,91.20
2019-01-23T14:35:18.830Z,91.30
2019-01-23T14:37:46.401Z,91.20
2019-01-23T14:40:14.205Z,91.20
2019-01-23T14:42:42.148Z,91.10
2019-01-23T14:45:10.403Z,91.20
2019-01-23T14:47:37.944Z,91.20
2019-01-23T14:50:07.534Z,91.30
2019-01-23T14:52:35.012Z,91.20
2019-01-23T14:57:57.546Z,91.20
2019-01-23T15:00:26.180Z,91.20
2019-01-23T15:02:53.764Z,91.20
2019-01-23T15:05:21.249Z,91.20
2019-01-23T15:07:48.676Z,91.20
2019-01-23T15:10:18.587Z,91.20
2019-01-23T15:12:47.710Z,91.20
2019-01-23T15:15:15.924Z,91.30
2019-01-23T15:17:43.800Z,91.30
2019-01-23T15:20:15.517Z,91.30
2019-01-23T15:22:42.963Z,91.20
2019-01-23T15:25:10.485Z,91.20
2019-01-23T15:27:38.085Z,91.20
2019-01-23T15:30:06.219Z,91.20
2019-01-23T15:32:33.795Z,91.20
2019-01-23T15:35:01.291Z,91.30
2019-01-23T15:37:28.897Z,91.30
2019-01-23T15:39:57.250Z,91.30
2019-01-23T15:42:29.367Z,91.40
2019-01-23T15:44:56.966Z,91.40
2019-01-23T15:47:24.615Z,91.50
2019-01-23T15:49:52.019Z,91.50
2019-01-23T15:52:19.521Z,91.50
2019-01-23T15:54:47.290Z,91.60
2019-01-23T15:57:14.780Z,91.60
2019-01-23T15:59:42.339Z,91.70
2019-01-23T16:02:09.903Z,91.60
2019-01-23T16:04:37.490Z,91.70
2019-01-23T16:07:24.359Z,91.70
2019-01-23T16:09:51.821Z,91.70
2019-01-23T16:12:19.243Z,91.80
2019-01-23T16:14:46.720Z,91.70
2019-01-23T16:17:14.393Z,91.80
2019-01-23T16:19:41.843Z,91.90
2019-01-23T16:22:09.381Z,91.90
2019-01-23T16:24:36.831Z,91.90
2019-01-23T16:27:04.363Z,92.00
2019-01-23T16:29:31.817Z,91.80
2019-01-23T16:32:00.146Z,92.00
2019-01-23T16:34:27.705Z,92.00
2019-01-23T16:36:55.312Z,92.00
2019-01-23T16:39:23.025Z,92.00
2019-01-23T16:41:51.380Z,92.00
2019-01-23T16:44:19.235Z,92.20
2019-01-23T16:46:46.731Z,92.10
2019-01-23T16:49:14.224Z,92.10
2019-01-23T16:51:41.885Z,92.10
2019-01-23T16:54:09.452Z,92.10
2019-01-23T16:56:37.269Z,92.10
2019-01-23T16:59:04.759Z,92.20
2019-01-23T17:01:32.643Z,92.20
2019-01-23T17:04:01.014Z,92.20
2019-01-23T17:06:28.693Z,92.20
2019-01-23T17:08:56.418Z,92.20
2019-01-23T17:11:23.961Z,92.30
2019-01-23T17:13:51.684Z,92.30
2019-01-23T17:16:19.176Z,92.40
2019-01-23T17:18:46.567Z,92.40
2019-01-23T17:21:14.426Z,92.40
2019-01-23T17:23:41.904Z,92.40
2019-01-23T17:26:09.570Z,92.40
2019-01-23T17:28:37.099Z,92.50
2019-01-23T17:31:04.596Z,92.50
2019-01-23T17:33:32.255Z,92.60
2019-01-23T17:36:00.332Z,92.60
2019-01-23T17:38:27.794Z,92.60
2019-01-23T17:40:55.358Z,92.60
2019-01-23T17:43:23.558Z,92.60
2019-01-23T17:45:51.406Z,92.60
2019-01-23T17:48:19.227Z,92.70
2019-01-23T17:50:46.752Z,92.60
2019-01-23T17:53:14.446Z,92.70
2019-01-23T17:55:41.925Z,92.70
2019-01-23T17:58:11.592Z,92.70
2019-01-23T18:00:43.556Z,92.70
2019-01-23T18:03:11.426Z,92.80
2019-01-23T18:05:38.959Z,92.70
2019-01-23T18:08:06.503Z,92.50
2019-01-23T18:10:34.694Z,92.70
2019-01-23T18:13:02.170Z,92.80
2019-01-23T18:15:29.879Z,92.80
2019-01-23T18:17:57.435Z,92.80
2019-01-23T18:20:26.637Z,92.80
2019-01-23T18:22:55.246Z,92.80
2019-01-23T18:25:25.279Z,92.80
2019-01-23T18:27:52.800Z,92.80
2019-01-23T18:30:24.016Z,92.80
2019-01-23T18:32:51.406Z,92.80
2019-01-23T18:35:48.998Z,92.80
2019-01-23T18:39:09.811Z,92.80
2019-01-23T18:41:49.195Z,92.80
2019-01-23T18:44:33.618Z,92.80
2019-01-23T18:47:28.908Z,92.80
2019-01-23T18:50:38.322Z,92.80
2019-01-23T18:53:06.061Z,92.80
2019-01-23T18:55:37.140Z,92.80
2019-01-23T18:58:05.209Z,92.80
2019-01-23T19:00:32.774Z,92.90
2019-01-23T19:03:06.723Z,92.90
2019-01-23T19:05:30.114Z,92.90
2019-01-23T19:07:57.724Z,93.20
2019-01-23T19:10:25.075Z,92.90
2019-01-23T19:12:52.567Z,92.90
2019-01-23T19:15:20.280Z,92.90
2019-01-23T19:17:48.248Z,93.00
2019-01-23T19:20:17.824Z,92.90
2019-01-23T19:22:45.530Z,92.90
2019-01-23T19:25:13.346Z,92.80
2019-01-23T19:27:40.768Z,93.00
2019-01-23T19:30:10.042Z,93.10
2019-01-23T19:32:37.903Z,93.10
2019-01-23T19:35:05.562Z,93.10
2019-01-23T19:37:33.119Z,93.10
2019-01-23T19:40:01.260Z,93.10
2019-01-23T19:42:29.079Z,93.10
2019-01-23T19:44:56.655Z,93.30
2019-01-23T19:47:36.945Z,93.10
2019-01-23T19:50:05.887Z,93.10
2019-01-23T19:52:33.573Z,93.10
2019-01-23T19:55:01.222Z,93.10
2019-01-23T19:57:28.901Z,93.10
2019-01-23T19:59:56.606Z,93.20
2019-01-23T20:02:24.732Z,93.20
2019-01-23T20:04:52.546Z,93.20
2019-01-23T20:07:20.257Z,93.20
2019-01-23T20:09:47.891Z,93.20
2019-01-23T20:12:15.777Z,93.20
2019-01-23T20:14:44.276Z,93.20
2019-01-23T20:17:12.106Z,93.20
2019-01-23T20:19:39.990Z,93.20
2019-01-23T20:22:07.484Z,93.20
2019-01-23T20:24:35.048Z,93.20
2019-01-23T20:27:02.560Z,93.20
2019-01-23T20:29:30.325Z,93.20
2019-01-23T20:31:57.944Z,93.20
2019-01-23T20:34:25.484Z,93.20
2019-01-23T20:36:55.129Z,93.30
2019-01-23T20:39:22.762Z,93.30
2019-01-23T20:41:50.291Z,93.30
2019-01-23T20:44:18.861Z,93.30
2019-01-23T20:47:26.838Z,93.30
2019-01-23T20:49:55.258Z,93.30
2019-01-23T20:52:24.811Z,93.30
2019-01-23T20:54:53.821Z,93.30
2019-01-23T20:57:22.110Z,93.30
2019-01-23T20:59:49.854Z,93.30
2019-01-23T21:02:17.709Z,93.30
2019-01-23T21:04:45.421Z,93.30
2019-01-23T21:07:13.097Z,93.60
2019-01-23T21:09:40.618Z,93.40
2019-01-23T21:12:08.795Z,93.30
2019-01-23T21:14:37.295Z,93.40
2019-01-23T21:17:07.920Z,93.30
2019-01-23T21:22:25.534Z,93.20
2019-01-23T21:24:53.250Z,93.20
2019-01-23T21:27:25.494Z,93.20
2019-01-23T21:29:53.735Z,93.30
2019-01-23T21:32:21.697Z,93.30
2019-01-23T21:34:49.414Z,93.30
2019-01-23T21:37:16.935Z,93.30
2019-01-23T21:39:44.603Z,93.30
2019-01-23T21:42:13.226Z,93.30
2019-01-23T21:44:41.978Z,93.30
2019-01-23T21:47:10.035Z,93.30
2019-01-23T21:49:37.750Z,93.30
2019-01-23T21:52:05.555Z,93.30
2019-01-23T21:54:33.372Z,93.40
2019-01-23T21:57:01.175Z,93.40
2019-01-23T21:59:29.119Z,93.40
2019-01-23T22:01:57.390Z,93.30
2019-01-23T22:04:26.543Z,93.30
2019-01-23T22:06:54.039Z,93.30
2019-01-23T22:09:21.579Z,93.30
2019-01-23T22:11:58.542Z,93.30
2019-01-23T22:14:27.380Z,93.30
2019-01-23T22:16:55.114Z,93.20
2019-01-23T22:19:26.915Z,93.20
2019-01-23T22:22:00.377Z,93.20
2019-01-23T22:24:28.006Z,93.20
2019-01-23T22:26:57.441Z,93.20
2019-01-23T22:29:25.837Z,93.20
2019-01-23T22:31:54.308Z,93.20
2019-01-23T22:34:22.538Z,93.30
2019-01-23T22:36:50.076Z,93.30
2019-01-23T22:39:17.507Z,93.20
2019-01-23T22:41:44.994Z,93.20
2019-01-23T22:44:13.925Z,93.20
2019-01-23T22:46:41.463Z,93.20
2019-01-23T22:49:09.010Z,93.20
2019-01-23T22:51:36.544Z,93.20
2019-01-23T22:54:04.311Z,93.20
2019-01-23T22:56:31.900Z,93.20
2019-01-23T22:58:59.467Z,93.20
2019-01-23T23:01:28.879Z,93.10
2019-01-23T23:04:02.931Z,93.10
2019-01-23T23:06:26.374Z,93.10
2019-01-23T23:08:54.176Z,93.10
2019-01-23T23:11:21.722Z,93.10
2019-01-23T23:13:49.030Z,93.10
2019-01-23T23:16:16.530Z,93.10
2019-01-23T23:18:43.961Z,93.10
2019-01-23T23:21:11.429Z,93.20
2019-01-23T23:23:38.846Z,93.10
2019-01-23T23:26:06.375Z,93.10
2019-01-23T23:28:33.935Z,93.10
2019-01-23T23:31:01.419Z,93.10
2019-01-23T23:33:28.987Z,93.10
2019-01-23T23:35:56.442Z,93.10
2019-01-23T23:38:23.746Z,93.10
2019-01-23T23:40:51.254Z,93.10
2019-01-23T23:43:18.783Z,93.20
2019-01-23T23:45:46.298Z,93.10
2019-01-23T23:48:13.693Z,93.10
2019-01-23T23:50:41.206Z,93.10
2019-01-23T23:53:08.642Z,93.10
2019-01-23T23:55:36.160Z,93.10
2019-01-23T23:58:03.922Z,93.10
